This is the latest recevied weather packets stored in our database for station/object WA1OUI. If no packets are shown the sender has not sent any weather packets the latest 10 day(s).
| Time | Temp. | Humidity | Pressure | Rain* | Wind** | Luminosity | Snow |
|---|---|---|---|---|---|---|---|
| 1777906671 | 18.33° C | 33% | 1009.2 hPa | 0 mm | - | 210 W/m² | - |
| 1777906367 | 18.33° C | 31% | 1009.1 hPa | 0 mm | - | 562 W/m² | - |
| 1777906063 | 18.33° C | 32% | 1009.1 hPa | 0 mm | - | 727 W/m² | - |
| 1777905760 | 18.33° C | 32% | 1009.1 hPa | 0 mm | - | 645 W/m² | - |
| 1777905457 | 17.78° C | 34% | 1009.2 hPa | 0 mm | - | 614 W/m² | - |
| 1777905155 | 17.78° C | 37% | 1009.4 hPa | 0 mm | - | 475 W/m² | - |
| 1777904851 | 17.78° C | 33% | 1009.4 hPa | 0 mm | - | 245 W/m² | - |
| 1777904549 | 17.22° C | 35% | 1009.4 hPa | 0 mm | - | 112 W/m² | - |
| 1777903943 | 17.22° C | 35% | 1009.4 hPa | 0 mm | - | 146 W/m² | - |
| 1777903639 | 17.22° C | 35% | 1009.4 hPa | 0 mm | - | 116 W/m² | - |
| 1777903334 | 17.22° C | 34% | 1009.4 hPa | 0 mm | - | 112 W/m² | - |
| 1777903032 | 16.67° C | 37% | 1009.5 hPa | 0 mm | - | 271 W/m² | - |
| 1777901821 | 15.56° C | 39% | 1009.6 hPa | 0 mm | - | 89 W/m² | - |
| 1777901518 | 15° C | 39% | 1009.6 hPa | 0 mm | - | 218 W/m² | - |
| 1777901215 | 15° C | 38% | 1009.6 hPa | 0 mm | - | 137 W/m² | - |
| 1777900912 | 14.44° C | 42% | 1009.8 hPa | 0 mm | - | 51 W/m² | - |
| 1777900610 | 14.44° C | 43% | 1009.9 hPa | 0 mm | - | 47 W/m² | - |
| 1777900307 | 13.89° C | 42% | 1010.1 hPa | 0 mm | - | 47 W/m² | - |
| 1777900003 | 13.89° C | 41% | 1010.1 hPa | 0 mm | - | 46 W/m² | - |
| 1777899700 | 13.89° C | 42% | 1010.2 hPa | 0 mm | - | 46 W/m² | - |
| 1777898187 | 12.78° C | 46% | 1010.1 hPa | 0 mm | - | 43 W/m² | - |
| 1777897884 | 12.22° C | 48% | 1010.3 hPa | 0 mm | - | 43 W/m² | - |
| 1777897580 | 12.22° C | 49% | 1010.3 hPa | 0 mm | - | 42 W/m² | - |
| 1777897276 | 11.67° C | 48% | 1010 hPa | 0 mm | - | 41 W/m² | - |
| 1777896972 | 11.67° C | 48% | 1010.2 hPa | 0 mm | - | 41 W/m² | - |
* Rain latest hour (hover to see other rain measurements)
** Current wind speed in m/s (hover to see current wind gust speed)